EHBK Airport Information

Runway Information
Runway 03 Length 8202 ft width 148 ft
Elevation 365 ft Threshold 820 ft Heading 33
Runway 21 Length 8202 ft Width 148 ft
Elevation 370 ft Threshold 820 ft Heading 213
Airport Frequencies
Type APP Name BEEK APP Frequency 120.2 MHZ
Type ATIS Name ATIS Frequency 124.575 MHZ
Type GND Name BEEK GND Frequency 121.825 MHZ
Type TWR Name BEEK TWR Frequency 119.475 MHZ
Airport Navaids
Type VOR-DME Name Maastricht Frequency 108600 KHZ
Type NDB Name Maastricht Frequency 373 KHZ
Airport Weather Information & NOTAM
ADDS - METARS form results

(0717 UTC 21 October 2020)
Data provider http://aviationweather.gov/metar/data/
 
METAR text: EHBK 210655Z AUTO 18010KT 150V210 9999 -RA BKN040 BKN045 13/11 Q1003 NOSIG
Conditions at: EHBK (ZUID-LIMBURG/BEE, NL) observed 0655 UTC 21 October 2020
Temperature: 13.0°C (55°F)
Dewpoint: 11.0°C (52°F) [RH = 88%]
Pressure (altimeter): 29.62 inches Hg (1003.0 mb)
Winds: from the S (180 degrees) at 12 MPH (10 knots; 5.1 m/s)
Visibility: 6 or more miles (10+ km)
Ceiling: 4000 feet AGL
Clouds: broken clouds at 4000 feet AGL
broken clouds at 4500 feet AGL
Weather: -RA  (light rain)

METAR text: EHBK 210625Z AUTO 18011KT 140V210 9999 -RA FEW003 BKN038 OVC043 12/11 Q1003 BECMG RADZ
Conditions at: EHBK (ZUID-LIMBURG/BEE, NL) observed 0625 UTC 21 October 2020
Temperature: 12.0°C (54°F)
Dewpoint: 11.0°C (52°F) [RH = 94%]
Pressure (altimeter): 29.62 inches Hg (1003.0 mb)
Winds: from the S (180 degrees) at 13 MPH (11 knots; 5.7 m/s)
Visibility: 6 or more miles (10+ km)
Ceiling: 3800 feet AGL
Clouds: few clouds at 300 feet AGL
broken clouds at 3800 feet AGL
overcast cloud deck at 4300 feet AGL
Weather: -RA  (light rain)

Forecast for: EHBK (ZUID-LIMBURG/BEE, NL)
Text: TAF EHBK 210515Z 2106/2212 18010KT 9999 -RA NSC
Forecast period: 0600 to 0800 UTC 21 October 2020
Forecast type: FROM: standard forecast or significant change
Winds: from the S (180 degrees) at 12 MPH (10 knots; 5.1 m/s)
Visibility: 6 or more miles (10+ km)
Ceiling: unknown
Clouds: missing
Weather: -RA  (light rain)
Text: BECMG 2108/2111 21020G32KT
Forecast period: 0800 to 1600 UTC 21 October 2020
Forecast type: BECOMING: Conditions expected to become as follows by 1100 UTC 21 October 2020
Winds: from the SSW (210 degrees) at 23 MPH (20 knots; 10.3 m/s)
gusting to 37 MPH (32 knots; 16.5 m/s)
Visibility: 6 or more miles (10+ km)
Ceiling: unknown
Clouds: missing
Weather: -RA  (light rain)
Text: BECMG 2116/2119 21013KT
Forecast period: 1600 UTC 21 October 2020 to 1200 UTC 22 October 2020
Forecast type: BECOMING: Conditions expected to become as follows by 1900 UTC 21 October 2020
Winds: from the SSW (210 degrees) at 15 MPH (13 knots; 6.7 m/s)
Visibility: 6 or more miles (10+ km)
Ceiling: unknown
Clouds: missing
Weather: -RA  (light rain)